createdAt,value
2023-04-13T00:00:32.311Z,100.00
2023-04-13T00:03:36.212Z,100.00
2023-04-13T00:06:39.121Z,100.00
2023-04-13T00:09:41.894Z,100.00
2023-04-13T00:12:47.496Z,100.00
2023-04-13T00:15:53.596Z,100.00
2023-04-13T00:18:56.370Z,100.00
2023-04-13T00:22:00.129Z,100.00
2023-04-13T00:25:02.770Z,100.00
2023-04-13T00:28:06.375Z,100.00
2023-04-13T00:31:10.667Z,100.00
2023-04-13T00:34:13.421Z,100.00
2023-04-13T00:37:16.086Z,100.00
2023-04-13T00:40:19.533Z,100.00
2023-04-13T00:43:22.247Z,100.00
2023-04-13T00:46:26.396Z,100.00
2023-04-13T00:49:30.517Z,100.00
2023-04-13T00:52:38.076Z,100.00
2023-04-13T00:55:42.498Z,100.00
2023-04-13T00:58:45.541Z,100.00
2023-04-13T01:01:51.055Z,100.00
2023-04-13T01:04:55.022Z,100.00
2023-04-13T01:08:08.853Z,100.00
2023-04-13T01:11:18.763Z,100.00
2023-04-13T01:14:30.681Z,100.00
2023-04-13T01:17:37.796Z,100.00
2023-04-13T01:20:45.211Z,100.00
2023-04-13T01:23:56.993Z,100.00
2023-04-13T01:27:09.462Z,100.00
2023-04-13T01:30:14.566Z,100.00
2023-04-13T01:33:17.381Z,100.00
2023-04-13T01:36:20.869Z,100.00
2023-04-13T01:39:25.462Z,100.00
2023-04-13T01:42:28.106Z,100.00
2023-04-13T01:45:40.442Z,100.00
2023-04-13T01:48:48.128Z,100.00
2023-04-13T01:51:53.355Z,100.00
2023-04-13T01:54:57.853Z,100.00
2023-04-13T01:58:01.879Z,100.00
2023-04-13T02:01:08.550Z,100.00
2023-04-13T02:04:11.770Z,100.00
2023-04-13T02:07:14.531Z,100.00
2023-04-13T02:10:17.194Z,100.00
2023-04-13T02:13:19.832Z,100.00
2023-04-13T02:16:25.151Z,100.00
2023-04-13T02:19:27.831Z,100.00
2023-04-13T02:22:30.487Z,100.00
2023-04-13T02:25:33.125Z,100.00
2023-04-13T02:28:35.848Z,100.00
2023-04-13T02:31:43.609Z,100.00
2023-04-13T02:34:46.387Z,100.00
2023-04-13T02:37:49.182Z,100.00
2023-04-13T02:40:55.572Z,100.00
2023-04-13T02:43:58.517Z,100.00
2023-04-13T02:47:02.708Z,100.00
2023-04-13T02:50:06.692Z,100.00
2023-04-13T02:53:09.550Z,100.00
2023-04-13T02:56:12.229Z,100.00
2023-04-13T02:59:16.545Z,100.00
2023-04-13T03:02:20.764Z,100.00
2023-04-13T03:05:24.042Z,100.00
2023-04-13T03:08:27.325Z,100.00
2023-04-13T03:11:29.965Z,100.00
2023-04-13T03:14:33.133Z,100.00
2023-04-13T03:17:40.291Z,100.00
2023-04-13T03:20:43.879Z,100.00
2023-04-13T03:23:46.652Z,100.00
2023-04-13T03:26:49.271Z,100.00
2023-04-13T03:29:51.888Z,100.00
2023-04-13T03:32:56.025Z,100.00
2023-04-13T03:35:59.024Z,100.00
2023-04-13T03:39:01.944Z,100.00
2023-04-13T03:42:04.765Z,100.00
2023-04-13T03:45:08.492Z,100.00
2023-04-13T03:48:12.600Z,100.00
2023-04-13T03:51:16.191Z,100.00
2023-04-13T03:54:18.814Z,100.00
2023-04-13T03:57:22.462Z,100.00
2023-04-13T04:00:25.727Z,100.00
2023-04-13T04:03:30.209Z,100.00
2023-04-13T04:06:32.888Z,100.00
2023-04-13T04:09:35.875Z,100.00
2023-04-13T04:12:38.521Z,100.00
2023-04-13T04:15:41.196Z,100.00
2023-04-13T04:18:45.232Z,100.00
2023-04-13T04:21:47.883Z,100.00
2023-04-13T04:24:52.501Z,100.00
2023-04-13T04:27:57.641Z,100.00
2023-04-13T04:31:01.259Z,100.00
2023-04-13T04:34:05.303Z,100.00
2023-04-13T04:37:19.505Z,100.00
2023-04-13T04:40:23.347Z,100.00
2023-04-13T04:43:27.084Z,100.00
2023-04-13T04:46:29.903Z,100.00
2023-04-13T04:49:34.029Z,100.00
2023-04-13T04:52:36.677Z,100.00
2023-04-13T04:55:39.769Z,100.00
2023-04-13T04:58:42.384Z,100.00
2023-04-13T05:01:45.248Z,100.00
2023-04-13T05:04:49.348Z,100.00
2023-04-13T05:07:52.236Z,100.00
2023-04-13T05:10:54.941Z,100.00
2023-04-13T05:13:57.785Z,100.00
2023-04-13T05:17:01.302Z,100.00
2023-04-13T05:20:06.791Z,100.00
2023-04-13T05:23:09.723Z,100.00
2023-04-13T05:26:13.468Z,100.00
2023-04-13T05:29:16.111Z,100.00
2023-04-13T05:32:18.764Z,100.00
2023-04-13T05:35:23.491Z,100.00
2023-04-13T05:38:26.245Z,100.00
2023-04-13T05:41:28.924Z,100.00
2023-04-13T05:44:31.572Z,100.00
2023-04-13T05:47:34.231Z,100.00
2023-04-13T05:50:38.407Z,100.00
2023-04-13T05:53:41.361Z,100.00
2023-04-13T05:56:44.003Z,100.00
2023-04-13T05:59:46.938Z,100.00
2023-04-13T06:02:50.611Z,100.00
2023-04-13T06:05:54.750Z,100.00
2023-04-13T06:08:57.633Z,100.00
2023-04-13T06:12:00.461Z,100.00
2023-04-13T06:15:04.015Z,100.00
2023-04-13T06:18:07.154Z,100.00
2023-04-13T06:21:11.475Z,100.00
2023-04-13T06:24:14.146Z,100.00
2023-04-13T06:27:16.955Z,100.00
2023-04-13T06:30:19.707Z,100.00
2023-04-13T06:33:23.086Z,100.00
2023-04-13T06:36:27.170Z,100.00
2023-04-13T06:39:31.766Z,100.00
2023-04-13T06:42:36.558Z,100.00
2023-04-13T06:45:39.174Z,100.00
2023-04-13T06:48:41.870Z,100.00
2023-04-13T06:51:45.860Z,100.00
2023-04-13T06:54:48.488Z,100.00
2023-04-13T06:57:51.128Z,100.00
2023-04-13T07:00:53.777Z,100.00
2023-04-13T07:03:56.459Z,100.00
2023-04-13T07:07:00.584Z,100.00
2023-04-13T07:10:03.306Z,100.00
2023-04-13T07:13:06.864Z,100.00
2023-04-13T07:16:12.140Z,100.00
2023-04-13T07:19:14.875Z,100.00
2023-04-13T07:22:18.917Z,100.00
2023-04-13T07:25:21.983Z,100.00
2023-04-13T07:28:25.495Z,100.00
2023-04-13T07:31:28.679Z,100.00
2023-04-13T07:34:31.779Z,100.00
2023-04-13T07:37:35.804Z,100.00
2023-04-13T07:40:38.450Z,100.00
2023-04-13T07:43:41.135Z,100.00
2023-04-13T07:46:43.893Z,100.00
2023-04-13T07:49:46.564Z,100.00
2023-04-13T07:52:50.621Z,100.00
2023-04-13T07:55:53.263Z,100.00
2023-04-13T07:58:55.909Z,100.00
2023-04-13T08:01:59.441Z,100.00
2023-04-13T08:05:02.461Z,100.00
2023-04-13T08:08:06.991Z,100.00
2023-04-13T08:11:09.673Z,100.00
2023-04-13T08:14:12.371Z,100.00
2023-04-13T08:17:15.023Z,100.00
2023-04-13T08:20:18.480Z,98.61
2023-04-13T08:23:22.555Z,99.27
2023-04-13T08:26:26.291Z,97.27
2023-04-13T08:29:29.768Z,98.95
2023-04-13T08:32:32.413Z,99.15
2023-04-13T08:35:38.980Z,97.52
2023-04-13T08:38:43.038Z,97.85
2023-04-13T08:41:47.078Z,95.52
2023-04-13T08:44:52.503Z,98.17
2023-04-13T08:47:55.270Z,99.33
2023-04-13T08:51:01.106Z,98.33
2023-04-13T08:54:05.526Z,96.09
2023-04-13T08:57:10.610Z,94.74
2023-04-13T09:00:18.001Z,94.05
2023-04-13T09:03:25.744Z,92.96
2023-04-13T09:06:33.158Z,93.42
2023-04-13T09:09:39.796Z,93.01
2023-04-13T09:12:42.435Z,94.85
2023-04-13T09:15:47.245Z,94.28
2023-04-13T09:18:51.603Z,96.71
2023-04-13T09:21:54.235Z,95.94
2023-04-13T09:24:59.044Z,93.34
2023-04-13T09:28:01.674Z,91.37
2023-04-13T09:31:05.525Z,87.31
2023-04-13T09:34:08.997Z,85.65
2023-04-13T09:37:13.876Z,81.11
2023-04-13T09:40:19.837Z,81.79
2023-04-13T09:43:22.589Z,75.58
2023-04-13T09:46:25.656Z,79.12
2023-04-13T09:49:38.045Z,78.29
2023-04-13T09:52:41.333Z,81.52
2023-04-13T09:55:47.355Z,76.18
2023-04-13T09:58:51.484Z,75.12
2023-04-13T10:01:54.794Z,74.65
2023-04-13T10:04:58.358Z,73.36
2023-04-13T10:08:02.561Z,72.00
2023-04-13T10:11:11.691Z,71.81
2023-04-13T10:14:17.299Z,66.00
2023-04-13T10:17:32.556Z,66.76
2023-04-13T10:20:36.519Z,63.76
2023-04-13T10:23:39.955Z,60.33
2023-04-13T10:26:45.111Z,65.00
2023-04-13T10:29:48.511Z,56.32
2023-04-13T10:33:02.367Z,58.59
2023-04-13T10:36:05.978Z,57.84
2023-04-13T10:39:09.516Z,58.84
2023-04-13T10:42:14.473Z,54.08
2023-04-13T10:45:20.342Z,55.17
2023-04-13T10:48:23.064Z,57.46
2023-04-13T10:51:25.975Z,54.22
2023-04-13T10:54:30.191Z,53.70
2023-04-13T10:57:36.565Z,53.06
2023-04-13T11:00:46.434Z,53.75
2023-04-13T11:04:03.919Z,50.30
2023-04-13T11:07:08.859Z,50.35
2023-04-13T11:10:11.919Z,49.64
2023-04-13T11:13:16.246Z,52.75
2023-04-13T11:16:19.036Z,48.65
2023-04-13T11:19:21.701Z,54.03
2023-04-13T11:22:27.837Z,50.83
2023-04-13T11:25:31.551Z,50.74
2023-04-13T11:28:40.912Z,48.55
2023-04-13T11:31:43.791Z,48.45
2023-04-13T11:34:48.592Z,49.86
2023-04-13T11:37:53.952Z,47.20
2023-04-13T11:41:15.162Z,48.75
2023-04-13T11:44:20.730Z,47.50
2023-04-13T11:47:23.832Z,49.30
2023-04-13T11:50:26.953Z,48.85
2023-04-13T11:53:30.074Z,51.37
2023-04-13T11:56:32.876Z,52.15
2023-04-13T11:59:38.655Z,47.93
2023-04-13T12:02:59.930Z,45.43
2023-04-13T12:06:05.079Z,48.45
2023-04-13T12:09:13.470Z,44.56
2023-04-13T12:15:43.490Z,50.24
2023-04-13T12:18:52.215Z,47.57
2023-04-13T12:21:57.267Z,48.22
2023-04-13T12:25:02.013Z,50.38
2023-04-13T12:28:05.166Z,46.27
2023-04-13T12:31:12.160Z,49.41
2023-04-13T12:34:14.882Z,47.15
2023-04-13T12:37:17.557Z,47.33
2023-04-13T12:40:20.335Z,50.98
2023-04-13T12:43:23.026Z,51.52
2023-04-13T12:46:27.214Z,50.82
2023-04-13T12:49:29.976Z,48.84
2023-04-13T12:52:32.717Z,49.18
2023-04-13T12:55:35.575Z,47.29
2023-04-13T12:58:38.341Z,48.32
2023-04-13T13:01:42.348Z,50.86
2023-04-13T13:04:45.141Z,52.91
2023-04-13T13:07:48.056Z,53.00
2023-04-13T13:10:50.921Z,54.53
2023-04-13T13:13:53.524Z,55.05
2023-04-13T13:16:57.651Z,53.60
2023-04-13T13:20:01.291Z,55.10
2023-04-13T13:23:05.191Z,55.00
2023-04-13T13:26:23.241Z,56.92
2023-04-13T13:29:30.800Z,58.08
2023-04-13T13:32:35.448Z,58.75
2023-04-13T13:35:38.122Z,57.98
2023-04-13T13:38:40.754Z,58.26
2023-04-13T13:41:43.444Z,57.28
2023-04-13T13:44:46.245Z,58.42
2023-04-13T13:47:54.110Z,57.60
2023-04-13T13:50:56.832Z,59.27
2023-04-13T13:53:59.801Z,59.20
2023-04-13T13:57:03.057Z,59.35
2023-04-13T14:00:13.289Z,57.88
2023-04-13T14:03:17.976Z,57.23
2023-04-13T14:06:21.160Z,58.72
2023-04-13T14:09:23.818Z,59.13
2023-04-13T14:12:26.437Z,57.32
2023-04-13T14:15:29.266Z,58.64
2023-04-13T14:18:33.431Z,60.55
2023-04-13T14:21:36.130Z,60.33
2023-04-13T14:24:38.725Z,59.25
2023-04-13T14:27:41.373Z,59.13
2023-04-13T14:30:44.838Z,60.92
2023-04-13T14:33:48.846Z,60.56
2023-04-13T14:36:54.318Z,60.35
2023-04-13T14:39:57.191Z,62.00
2023-04-13T14:42:59.840Z,62.41
2023-04-13T14:46:03.310Z,60.56
2023-04-13T14:49:07.365Z,60.14
2023-04-13T14:52:10.190Z,64.12
2023-04-13T14:55:13.693Z,71.12
2023-04-13T14:58:16.584Z,74.16
2023-04-13T15:01:21.872Z,81.83
2023-04-13T15:04:26.143Z,84.11
2023-04-13T15:07:29.854Z,84.27
2023-04-13T15:10:34.610Z,89.48
2023-04-13T15:13:37.860Z,95.98
2023-04-13T15:16:40.613Z,98.41
2023-04-13T15:19:44.654Z,100.00
2023-04-13T15:22:47.306Z,100.00
2023-04-13T15:25:49.923Z,100.00
2023-04-13T15:28:52.607Z,100.00
2023-04-13T15:31:55.278Z,100.00
2023-04-13T15:34:59.345Z,100.00
2023-04-13T15:38:02.951Z,100.00
2023-04-13T15:41:05.851Z,100.00
2023-04-13T15:44:08.517Z,95.88
2023-04-13T15:47:11.129Z,93.51
2023-04-13T15:50:15.307Z,91.10
2023-04-13T15:53:17.987Z,87.47
2023-04-13T15:56:21.154Z,88.18
2023-04-13T15:59:25.061Z,85.51
2023-04-13T16:02:29.545Z,85.09
2023-04-13T16:05:33.619Z,80.27
2023-04-13T16:08:36.234Z,76.65
2023-04-13T16:11:39.482Z,79.42
2023-04-13T16:14:45.035Z,81.73
2023-04-13T16:17:48.228Z,83.36
2023-04-13T16:20:54.170Z,82.68
2023-04-13T16:23:57.036Z,84.13
2023-04-13T16:26:59.806Z,84.82
2023-04-13T16:30:04.334Z,85.01
2023-04-13T16:33:07.364Z,85.76
2023-04-13T16:36:11.703Z,83.11
2023-04-13T16:39:14.354Z,84.73
2023-04-13T16:42:17.816Z,86.26
2023-04-13T16:45:20.800Z,89.35
2023-04-13T16:48:23.633Z,89.15
2023-04-13T16:51:27.999Z,87.32
2023-04-13T16:54:30.829Z,88.32
2023-04-13T16:57:34.094Z,85.31
2023-04-13T17:00:36.763Z,86.58
2023-04-13T17:03:39.509Z,86.44
2023-04-13T17:06:43.544Z,87.48
2023-04-13T17:09:46.167Z,85.28
2023-04-13T17:12:48.860Z,85.60
2023-04-13T17:15:51.725Z,86.35
2023-04-13T17:18:54.401Z,83.06
2023-04-13T17:21:58.408Z,83.43
2023-04-13T17:25:01.151Z,81.95
2023-04-13T17:28:03.800Z,82.56
2023-04-13T17:31:07.581Z,81.77
2023-04-13T17:34:10.445Z,83.32
2023-04-13T17:37:14.522Z,82.95
2023-04-13T17:40:17.203Z,83.73
2023-04-13T17:43:19.824Z,84.71
2023-04-13T17:46:22.455Z,87.01
2023-04-13T17:49:26.103Z,86.61
2023-04-13T17:52:30.470Z,84.78
2023-04-13T17:55:33.274Z,87.32
2023-04-13T17:58:36.044Z,88.14
2023-04-13T18:01:38.732Z,90.05
2023-04-13T18:04:41.443Z,90.88
2023-04-13T18:07:45.962Z,90.83
2023-04-13T18:10:48.667Z,90.03
2023-04-13T18:13:51.442Z,91.35
2023-04-13T18:16:54.101Z,90.80
2023-04-13T18:19:56.751Z,91.03
2023-04-13T18:23:00.834Z,91.04
2023-04-13T18:26:03.580Z,91.50
2023-04-13T18:29:06.292Z,91.67
2023-04-13T18:32:09.631Z,91.77
2023-04-13T18:35:13.297Z,92.28
2023-04-13T18:38:17.387Z,93.23
2023-04-13T18:41:20.017Z,94.49
2023-04-13T18:44:22.665Z,93.98
2023-04-13T18:47:26.926Z,94.76
2023-04-13T18:50:29.825Z,95.81
2023-04-13T18:53:33.869Z,96.82
2023-04-13T18:56:36.591Z,97.07
2023-04-13T18:59:39.289Z,98.01
2023-04-13T19:02:46.334Z,97.58
2023-04-13T19:05:49.279Z,96.38
2023-04-13T19:08:53.294Z,96.25
2023-04-13T19:12:01.178Z,96.98
2023-04-13T19:15:04.140Z,97.13
2023-04-13T19:18:07.699Z,97.51
2023-04-13T19:21:10.329Z,97.49
2023-04-13T19:24:14.393Z,96.70
2023-04-13T19:27:17.152Z,97.05
2023-04-13T19:30:20.088Z,97.02
2023-04-13T19:33:22.764Z,97.36
2023-04-13T19:36:26.050Z,97.31
2023-04-13T19:39:30.071Z,97.51
2023-04-13T19:42:33.443Z,97.37
2023-04-13T19:45:36.391Z,97.02
2023-04-13T19:48:40.264Z,97.62
2023-04-13T19:51:43.000Z,97.97
2023-04-13T19:54:47.288Z,98.83
2023-04-13T19:57:49.929Z,99.62
2023-04-13T20:00:52.591Z,99.34
2023-04-13T20:03:55.442Z,99.71
2023-04-13T20:06:58.171Z,100.00
2023-04-13T20:10:02.180Z,100.00
2023-04-13T20:13:04.824Z,99.65
2023-04-13T20:16:07.728Z,99.88
2023-04-13T20:19:11.216Z,100.00
2023-04-13T20:22:14.326Z,100.00
2023-04-13T20:25:18.460Z,100.00
2023-04-13T20:28:21.469Z,100.00
2023-04-13T20:31:25.008Z,100.00
2023-04-13T20:34:28.102Z,99.37
2023-04-13T20:37:30.717Z,99.77
2023-04-13T20:40:36.158Z,99.87
2023-04-13T20:43:39.319Z,99.98
2023-04-13T20:46:49.211Z,100.00
2023-04-13T20:49:54.439Z,100.00
2023-04-13T20:52:59.659Z,100.00
2023-04-13T20:56:03.949Z,100.00
2023-04-13T20:59:07.403Z,100.00
2023-04-13T21:02:10.701Z,100.00
2023-04-13T21:05:13.997Z,100.00
2023-04-13T21:08:16.717Z,100.00
2023-04-13T21:11:21.268Z,100.00
2023-04-13T21:14:24.750Z,100.00
2023-04-13T21:17:27.495Z,100.00
2023-04-13T21:20:30.386Z,100.00
2023-04-13T21:23:33.048Z,100.00
2023-04-13T21:26:37.131Z,100.00
2023-04-13T21:29:39.751Z,100.00
2023-04-13T21:32:42.493Z,100.00
2023-04-13T21:35:45.183Z,100.00
2023-04-13T21:38:47.806Z,100.00
2023-04-13T21:41:51.830Z,100.00
2023-04-13T21:44:55.959Z,100.00
2023-04-13T21:47:58.585Z,100.00
2023-04-13T21:51:01.982Z,100.00
2023-04-13T21:54:05.024Z,100.00
2023-04-13T21:57:09.786Z,100.00
2023-04-13T22:00:14.334Z,100.00
2023-04-13T22:03:17.589Z,100.00
2023-04-13T22:06:20.456Z,100.00
2023-04-13T22:09:23.181Z,100.00
2023-04-13T22:12:27.224Z,100.00
2023-04-13T22:15:29.880Z,100.00
2023-04-13T22:18:32.628Z,100.00
2023-04-13T22:21:36.813Z,100.00
2023-04-13T22:24:39.496Z,100.00
2023-04-13T22:27:43.865Z,100.00
2023-04-13T22:30:47.226Z,100.00
2023-04-13T22:33:49.891Z,100.00
2023-04-13T22:36:53.357Z,100.00
2023-04-13T22:39:55.989Z,100.00
2023-04-13T22:42:59.978Z,100.00
2023-04-13T22:46:02.859Z,100.00
2023-04-13T22:49:05.547Z,100.00
2023-04-13T22:52:08.537Z,100.00
2023-04-13T22:55:11.324Z,100.00
2023-04-13T22:58:15.318Z,100.00
2023-04-13T23:01:17.994Z,100.00
2023-04-13T23:04:20.747Z,100.00
2023-04-13T23:07:23.505Z,100.00
2023-04-13T23:10:26.162Z,100.00
2023-04-13T23:13:30.176Z,100.00
2023-04-13T23:16:33.849Z,100.00
2023-04-13T23:19:36.539Z,100.00
2023-04-13T23:22:39.196Z,100.00
2023-04-13T23:25:41.876Z,100.00
2023-04-13T23:28:46.935Z,100.00
2023-04-13T23:31:49.625Z,100.00
2023-04-13T23:34:52.725Z,100.00
2023-04-13T23:37:55.415Z,100.00
2023-04-13T23:40:58.424Z,100.00
2023-04-13T23:44:02.708Z,100.00
2023-04-13T23:47:06.195Z,100.00
2023-04-13T23:50:09.302Z,100.00
2023-04-13T23:53:12.171Z,100.00
2023-04-13T23:56:14.807Z,100.00
2023-04-13T23:59:18.963Z,100.00
